sensor_id;sensor_type;location;lat;lon;timestamp;pressure;altitude;pressure_sealevel;temperature;humidity
9740;BME280;4909;42.680;26.324;2023-03-15T00:00:11;97828.69;;;7.06;66.15
9740;BME280;4909;42.680;26.324;2023-03-15T00:02:38;97823.66;;;7.00;66.68
9740;BME280;4909;42.680;26.324;2023-03-15T00:05:06;97801.09;;;6.93;66.85
9740;BME280;4909;42.680;26.324;2023-03-15T00:07:33;97830.13;;;7.13;66.88
9740;BME280;4909;42.680;26.324;2023-03-15T00:10:01;97820.16;;;7.20;66.83
9740;BME280;4909;42.680;26.324;2023-03-15T00:12:28;97825.50;;;7.18;66.83
9740;BME280;4909;42.680;26.324;2023-03-15T00:14:56;97814.50;;;7.09;67.79
9740;BME280;4909;42.680;26.324;2023-03-15T00:17:23;97817.59;;;6.98;68.31
9740;BME280;4909;42.680;26.324;2023-03-15T00:19:49;97813.97;;;6.80;69.21
9740;BME280;4909;42.680;26.324;2023-03-15T00:22:16;97791.88;;;6.83;68.96
9740;BME280;4909;42.680;26.324;2023-03-15T00:24:43;97804.44;;;6.56;70.23
9740;BME280;4909;42.680;26.324;2023-03-15T00:27:11;97796.75;;;6.72;69.74
9740;BME280;4909;42.680;26.324;2023-03-15T00:29:38;97793.38;;;6.88;68.03
9740;BME280;4909;42.680;26.324;2023-03-15T00:32:05;97788.47;;;7.01;66.79
9740;BME280;4909;42.680;26.324;2023-03-15T00:34:32;97782.88;;;7.07;66.67
9740;BME280;4909;42.680;26.324;2023-03-15T00:36:59;97777.66;;;6.87;67.03
9740;BME280;4909;42.680;26.324;2023-03-15T00:39:26;97777.38;;;6.93;67.20
9740;BME280;4909;42.680;26.324;2023-03-15T00:41:53;97776.34;;;6.97;66.88
9740;BME280;4909;42.680;26.324;2023-03-15T00:44:23;97779.22;;;6.91;66.89
9740;BME280;4909;42.680;26.324;2023-03-15T00:46:50;97771.13;;;6.95;66.40
9740;BME280;4909;42.680;26.324;2023-03-15T00:49:17;97771.38;;;6.89;66.36
9740;BME280;4909;42.680;26.324;2023-03-15T00:51:44;97759.19;;;6.67;66.57
9740;BME280;4909;42.680;26.324;2023-03-15T00:54:11;97765.19;;;6.70;67.37
9740;BME280;4909;42.680;26.324;2023-03-15T00:56:39;97764.31;;;6.49;68.51
9740;BME280;4909;42.680;26.324;2023-03-15T00:59:06;97760.50;;;6.57;68.33
9740;BME280;4909;42.680;26.324;2023-03-15T01:01:34;97773.03;;;6.72;67.12
9740;BME280;4909;42.680;26.324;2023-03-15T01:04:03;97762.47;;;6.92;66.37
9740;BME280;4909;42.680;26.324;2023-03-15T01:06:29;97758.91;;;6.93;67.14
9740;BME280;4909;42.680;26.324;2023-03-15T01:08:57;97761.53;;;6.93;65.85
9740;BME280;4909;42.680;26.324;2023-03-15T01:11:26;97754.38;;;6.96;66.15
9740;BME280;4909;42.680;26.324;2023-03-15T01:13:55;97747.69;;;6.88;64.83
9740;BME280;4909;42.680;26.324;2023-03-15T01:16:23;97746.06;;;6.65;66.12
9740;BME280;4909;42.680;26.324;2023-03-15T01:18:52;97684.16;;;6.53;64.62
9740;BME280;4909;42.680;26.324;2023-03-15T01:21:19;97735.31;;;6.90;64.83
9740;BME280;4909;42.680;26.324;2023-03-15T01:23:47;97731.66;;;6.92;64.59
9740;BME280;4909;42.680;26.324;2023-03-15T01:26:15;97726.88;;;6.82;66.11
9740;BME280;4909;42.680;26.324;2023-03-15T01:28:42;97704.38;;;6.73;66.53
9740;BME280;4909;42.680;26.324;2023-03-15T01:31:14;97715.31;;;6.84;67.36
9740;BME280;4909;42.680;26.324;2023-03-15T01:33:42;97719.03;;;6.80;66.85
9740;BME280;4909;42.680;26.324;2023-03-15T01:36:11;97691.25;;;6.53;66.81
9740;BME280;4909;42.680;26.324;2023-03-15T01:38:38;97703.34;;;6.17;68.01
9740;BME280;4909;42.680;26.324;2023-03-15T01:41:05;97691.59;;;6.03;68.73
9740;BME280;4909;42.680;26.324;2023-03-15T01:43:32;97696.63;;;5.88;69.93
9740;BME280;4909;42.680;26.324;2023-03-15T01:46:16;97699.13;;;6.13;70.24
9740;BME280;4909;42.680;26.324;2023-03-15T01:48:49;97701.56;;;6.17;68.90
9740;BME280;4909;42.680;26.324;2023-03-15T01:51:22;97702.75;;;6.30;68.04
9740;BME280;4909;42.680;26.324;2023-03-15T01:53:52;97692.66;;;6.20;67.55
9740;BME280;4909;42.680;26.324;2023-03-15T01:56:21;97663.28;;;6.08;67.58
9740;BME280;4909;42.680;26.324;2023-03-15T01:58:50;97686.66;;;6.16;67.66
9740;BME280;4909;42.680;26.324;2023-03-15T02:01:19;97685.03;;;6.14;67.30
9740;BME280;4909;42.680;26.324;2023-03-15T02:03:49;97687.91;;;6.07;67.80
9740;BME280;4909;42.680;26.324;2023-03-15T02:06:20;97639.19;;;5.76;69.15
9740;BME280;4909;42.680;26.324;2023-03-15T02:08:50;97680.09;;;6.26;68.05
9740;BME280;4909;42.680;26.324;2023-03-15T02:11:19;97647.53;;;6.07;68.76
9740;BME280;4909;42.680;26.324;2023-03-15T02:13:47;97687.94;;;6.28;68.35
9740;BME280;4909;42.680;26.324;2023-03-15T02:16:15;97699.72;;;6.39;66.99
9740;BME280;4909;42.680;26.324;2023-03-15T02:18:41;97695.66;;;6.32;67.60
9740;BME280;4909;42.680;26.324;2023-03-15T02:21:16;97691.81;;;6.19;68.05
9740;BME280;4909;42.680;26.324;2023-03-15T02:23:52;97699.16;;;6.11;67.73
9740;BME280;4909;42.680;26.324;2023-03-15T02:26:25;97688.84;;;5.85;69.18
9740;BME280;4909;42.680;26.324;2023-03-15T02:28:55;97695.44;;;5.73;69.54
9740;BME280;4909;42.680;26.324;2023-03-15T02:31:22;97693.91;;;5.67;69.48
9740;BME280;4909;42.680;26.324;2023-03-15T02:33:51;97698.34;;;5.22;72.79
9740;BME280;4909;42.680;26.324;2023-03-15T02:36:21;97660.19;;;5.34;71.43
9740;BME280;4909;42.680;26.324;2023-03-15T02:38:50;97688.09;;;5.59;70.97
9740;BME280;4909;42.680;26.324;2023-03-15T02:41:18;97688.41;;;5.74;69.45
9740;BME280;4909;42.680;26.324;2023-03-15T02:43:49;97683.56;;;5.85;69.23
9740;BME280;4909;42.680;26.324;2023-03-15T02:46:20;97672.41;;;5.78;69.30
9740;BME280;4909;42.680;26.324;2023-03-15T02:48:48;97681.63;;;5.90;69.55
9740;BME280;4909;42.680;26.324;2023-03-15T02:51:19;97691.13;;;5.94;70.06
9740;BME280;4909;42.680;26.324;2023-03-15T02:53:46;97690.41;;;5.90;70.91
9740;BME280;4909;42.680;26.324;2023-03-15T02:56:14;97680.44;;;5.97;71.25
9740;BME280;4909;42.680;26.324;2023-03-15T02:58:41;97682.44;;;6.12;69.82
9740;BME280;4909;42.680;26.324;2023-03-15T03:01:10;97681.94;;;6.24;69.07
9740;BME280;4909;42.680;26.324;2023-03-15T03:03:40;97674.09;;;5.81;70.63
9740;BME280;4909;42.680;26.324;2023-03-15T03:06:07;97685.97;;;5.91;71.16
9740;BME280;4909;42.680;26.324;2023-03-15T03:08:34;97686.38;;;6.02;70.84
9740;BME280;4909;42.680;26.324;2023-03-15T03:11:01;97692.06;;;6.13;70.75
9740;BME280;4909;42.680;26.324;2023-03-15T03:13:28;97663.56;;;5.81;71.42
9740;BME280;4909;42.680;26.324;2023-03-15T03:15:54;97689.69;;;6.07;70.19
9740;BME280;4909;42.680;26.324;2023-03-15T03:18:24;97695.63;;;6.12;71.96
9740;BME280;4909;42.680;26.324;2023-03-15T03:20:54;97696.53;;;6.11;69.96
9740;BME280;4909;42.680;26.324;2023-03-15T03:23:21;97698.88;;;5.97;69.68
9740;BME280;4909;42.680;26.324;2023-03-15T03:25:50;97684.56;;;6.04;69.36
9740;BME280;4909;42.680;26.324;2023-03-15T03:28:18;97696.28;;;6.17;69.98
9740;BME280;4909;42.680;26.324;2023-03-15T03:30:45;97691.59;;;6.03;69.10
9740;BME280;4909;42.680;26.324;2023-03-15T03:33:12;97686.81;;;5.91;70.55
9740;BME280;4909;42.680;26.324;2023-03-15T03:35:39;97683.56;;;6.06;70.02
9740;BME280;4909;42.680;26.324;2023-03-15T03:38:07;97685.59;;;6.20;69.08
9740;BME280;4909;42.680;26.324;2023-03-15T03:40:34;97673.19;;;6.24;68.73
9740;BME280;4909;42.680;26.324;2023-03-15T03:43:01;97664.78;;;6.34;68.67
9740;BME280;4909;42.680;26.324;2023-03-15T03:45:28;97675.28;;;6.36;70.49
9740;BME280;4909;42.680;26.324;2023-03-15T03:47:54;97680.31;;;6.42;68.66
9740;BME280;4909;42.680;26.324;2023-03-15T03:50:21;97689.84;;;6.65;67.46
9740;BME280;4909;42.680;26.324;2023-03-15T03:52:48;97684.25;;;6.32;68.66
9740;BME280;4909;42.680;26.324;2023-03-15T03:55:16;97686.94;;;6.30;69.18
9740;BME280;4909;42.680;26.324;2023-03-15T03:57:43;97689.53;;;6.10;69.27
9740;BME280;4909;42.680;26.324;2023-03-15T04:00:13;97682.03;;;6.01;69.27
9740;BME280;4909;42.680;26.324;2023-03-15T04:02:39;97672.19;;;5.84;68.68
9740;BME280;4909;42.680;26.324;2023-03-15T04:05:08;97684.31;;;5.88;70.08
9740;BME280;4909;42.680;26.324;2023-03-15T04:07:35;97677.22;;;5.90;69.48
9740;BME280;4909;42.680;26.324;2023-03-15T04:10:02;97678.47;;;6.02;69.07
9740;BME280;4909;42.680;26.324;2023-03-15T04:12:30;97682.22;;;5.96;69.72
9740;BME280;4909;42.680;26.324;2023-03-15T04:14:57;97685.03;;;6.14;69.73
9740;BME280;4909;42.680;26.324;2023-03-15T04:17:24;97671.94;;;6.32;68.26
9740;BME280;4909;42.680;26.324;2023-03-15T04:19:50;97673.81;;;6.49;67.40
9740;BME280;4909;42.680;26.324;2023-03-15T04:22:17;97665.59;;;6.36;68.27
9740;BME280;4909;42.680;26.324;2023-03-15T04:24:44;97670.41;;;6.27;68.93
9740;BME280;4909;42.680;26.324;2023-03-15T04:27:11;97661.66;;;6.46;68.47
9740;BME280;4909;42.680;26.324;2023-03-15T04:29:40;97658.34;;;6.41;67.87
9740;BME280;4909;42.680;26.324;2023-03-15T04:32:08;97655.56;;;6.44;67.48
9740;BME280;4909;42.680;26.324;2023-03-15T04:34:35;97647.09;;;6.18;68.08
9740;BME280;4909;42.680;26.324;2023-03-15T04:37:03;97653.66;;;6.07;69.39
9740;BME280;4909;42.680;26.324;2023-03-15T04:39:31;97658.00;;;5.88;70.62
9740;BME280;4909;42.680;26.324;2023-03-15T04:41:58;97643.34;;;6.03;69.61
9740;BME280;4909;42.680;26.324;2023-03-15T04:44:24;97664.53;;;6.40;67.69
9740;BME280;4909;42.680;26.324;2023-03-15T04:46:54;97661.03;;;6.60;66.48
9740;BME280;4909;42.680;26.324;2023-03-15T04:49:21;97659.91;;;6.66;65.69
9740;BME280;4909;42.680;26.324;2023-03-15T04:51:48;97655.56;;;6.65;65.96
9740;BME280;4909;42.680;26.324;2023-03-15T04:54:14;97663.97;;;6.34;67.33
9740;BME280;4909;42.680;26.324;2023-03-15T04:56:41;97640.16;;;5.95;68.81
9740;BME280;4909;42.680;26.324;2023-03-15T04:59:08;97669.69;;;6.23;69.61
9740;BME280;4909;42.680;26.324;2023-03-15T05:01:35;97673.28;;;6.21;68.00
9740;BME280;4909;42.680;26.324;2023-03-15T05:04:04;97674.34;;;6.17;68.39
9740;BME280;4909;42.680;26.324;2023-03-15T05:06:30;97674.78;;;6.48;66.90
9740;BME280;4909;42.680;26.324;2023-03-15T05:08:57;97670.00;;;6.36;67.42
9740;BME280;4909;42.680;26.324;2023-03-15T05:11:24;97679.84;;;6.52;66.99
9740;BME280;4909;42.680;26.324;2023-03-15T05:13:51;97681.72;;;6.49;66.56
9740;BME280;4909;42.680;26.324;2023-03-15T05:16:18;97682.88;;;6.43;67.21
9740;BME280;4909;42.680;26.324;2023-03-15T05:18:45;97684.28;;;6.10;68.55
9740;BME280;4909;42.680;26.324;2023-03-15T05:21:14;97674.16;;;6.41;68.05
9740;BME280;4909;42.680;26.324;2023-03-15T05:23:40;97673.34;;;6.80;66.32
9740;BME280;4909;42.680;26.324;2023-03-15T05:26:07;97670.25;;;7.09;65.46
9740;BME280;4909;42.680;26.324;2023-03-15T05:28:34;97661.34;;;7.30;64.63
9740;BME280;4909;42.680;26.324;2023-03-15T05:31:01;97662.28;;;7.65;63.30
9740;BME280;4909;42.680;26.324;2023-03-15T05:33:28;97662.63;;;7.76;63.31
9740;BME280;4909;42.680;26.324;2023-03-15T05:35:55;97655.59;;;8.11;63.85
9740;BME280;4909;42.680;26.324;2023-03-15T05:38:24;97653.06;;;8.27;62.67
9740;BME280;4909;42.680;26.324;2023-03-15T05:40:52;97642.72;;;8.22;60.65
9740;BME280;4909;42.680;26.324;2023-03-15T05:43:19;97644.81;;;8.16;61.50
9740;BME280;4909;42.680;26.324;2023-03-15T05:45:46;97640.56;;;7.95;61.89
9740;BME280;4909;42.680;26.324;2023-03-15T05:48:13;97637.63;;;7.83;63.75
9740;BME280;4909;42.680;26.324;2023-03-15T05:50:41;97635.09;;;8.34;62.77
9740;BME280;4909;42.680;26.324;2023-03-15T05:53:07;97639.28;;;8.55;61.33
9740;BME280;4909;42.680;26.324;2023-03-15T05:55:36;97633.72;;;8.77;61.25
9740;BME280;4909;42.680;26.324;2023-03-15T05:58:03;97644.19;;;8.95;60.27
9740;BME280;4909;42.680;26.324;2023-03-15T06:00:30;97629.28;;;8.77;60.51
9740;BME280;4909;42.680;26.324;2023-03-15T06:02:57;97625.78;;;8.77;61.55
9740;BME280;4909;42.680;26.324;2023-03-15T06:05:24;97644.13;;;9.12;60.57
9740;BME280;4909;42.680;26.324;2023-03-15T06:07:51;97633.88;;;9.22;60.18
9740;BME280;4909;42.680;26.324;2023-03-15T06:10:18;97647.97;;;9.70;57.89
9740;BME280;4909;42.680;26.324;2023-03-15T06:12:46;97644.97;;;9.76;58.87
9740;BME280;4909;42.680;26.324;2023-03-15T06:15:14;97656.91;;;9.98;58.22
9740;BME280;4909;42.680;26.324;2023-03-15T06:17:41;97656.69;;;10.33;56.42
9740;BME280;4909;42.680;26.324;2023-03-15T06:20:09;97651.09;;;10.81;55.30
9740;BME280;4909;42.680;26.324;2023-03-15T06:22:36;97653.31;;;11.58;53.13
9740;BME280;4909;42.680;26.324;2023-03-15T06:25:04;97652.34;;;12.27;51.04
9740;BME280;4909;42.680;26.324;2023-03-15T06:27:31;97644.22;;;13.31;48.25
9740;BME280;4909;42.680;26.324;2023-03-15T06:29:59;97651.59;;;13.28;46.47
9740;BME280;4909;42.680;26.324;2023-03-15T06:32:26;97656.13;;;13.87;46.19
9740;BME280;4909;42.680;26.324;2023-03-15T06:34:53;97649.66;;;14.26;44.82
9740;BME280;4909;42.680;26.324;2023-03-15T06:37:20;97642.00;;;15.03;42.31
9740;BME280;4909;42.680;26.324;2023-03-15T06:39:47;97646.78;;;15.44;41.30
9740;BME280;4909;42.680;26.324;2023-03-15T06:42:15;97642.09;;;15.90;39.91
9740;BME280;4909;42.680;26.324;2023-03-15T06:44:42;97641.88;;;16.25;38.82
9740;BME280;4909;42.680;26.324;2023-03-15T06:47:11;97634.94;;;15.80;39.33
9740;BME280;4909;42.680;26.324;2023-03-15T06:49:38;97622.94;;;15.07;41.06
9740;BME280;4909;42.680;26.324;2023-03-15T06:52:06;97619.53;;;15.16;40.82
9740;BME280;4909;42.680;26.324;2023-03-15T06:54:33;97609.09;;;15.25;40.73
9740;BME280;4909;42.680;26.324;2023-03-15T06:57:00;97621.13;;;15.41;40.44
9740;BME280;4909;42.680;26.324;2023-03-15T06:59:27;97609.53;;;14.74;42.16
9740;BME280;4909;42.680;26.324;2023-03-15T07:01:53;97614.16;;;15.50;40.99
9740;BME280;4909;42.680;26.324;2023-03-15T07:04:21;97621.13;;;15.63;40.35
9740;BME280;4909;42.680;26.324;2023-03-15T07:06:48;97616.75;;;14.96;41.34
9740;BME280;4909;42.680;26.324;2023-03-15T07:09:15;97620.53;;;14.47;43.23
9740;BME280;4909;42.680;26.324;2023-03-15T07:11:42;97605.97;;;14.51;43.88
9740;BME280;4909;42.680;26.324;2023-03-15T07:14:09;97607.75;;;14.86;43.12
9740;BME280;4909;42.680;26.324;2023-03-15T07:16:35;97621.19;;;14.62;43.65
9740;BME280;4909;42.680;26.324;2023-03-15T07:19:03;97621.59;;;14.45;43.90
9740;BME280;4909;42.680;26.324;2023-03-15T07:21:31;97631.50;;;14.31;44.36
9740;BME280;4909;42.680;26.324;2023-03-15T07:23:57;97625.66;;;13.79;45.51
9740;BME280;4909;42.680;26.324;2023-03-15T07:26:24;97624.91;;;13.77;46.70
9740;BME280;4909;42.680;26.324;2023-03-15T07:28:51;97619.59;;;13.77;46.10
9740;BME280;4909;42.680;26.324;2023-03-15T07:31:18;97612.13;;;13.45;47.23
9740;BME280;4909;42.680;26.324;2023-03-15T07:33:45;97608.09;;;13.40;47.32
9740;BME280;4909;42.680;26.324;2023-03-15T07:36:11;97598.84;;;13.57;46.98
9740;BME280;4909;42.680;26.324;2023-03-15T07:38:39;97589.59;;;12.62;48.86
9740;BME280;4909;42.680;26.324;2023-03-15T07:41:07;97592.34;;;12.23;50.73
9740;BME280;4909;42.680;26.324;2023-03-15T07:43:34;97587.56;;;12.79;49.73
9740;BME280;4909;42.680;26.324;2023-03-15T07:46:01;97591.59;;;13.22;48.62
9740;BME280;4909;42.680;26.324;2023-03-15T07:48:28;97592.91;;;13.17;49.38
9740;BME280;4909;42.680;26.324;2023-03-15T07:50:55;97581.97;;;13.07;48.49
9740;BME280;4909;42.680;26.324;2023-03-15T07:53:23;97574.56;;;13.12;49.01
9740;BME280;4909;42.680;26.324;2023-03-15T07:55:51;97571.50;;;13.42;47.50
9740;BME280;4909;42.680;26.324;2023-03-15T07:58:18;97579.41;;;14.26;46.27
9740;BME280;4909;42.680;26.324;2023-03-15T08:00:44;97574.44;;;14.67;43.60
9740;BME280;4909;42.680;26.324;2023-03-15T08:03:11;97567.91;;;14.83;44.03
9740;BME280;4909;42.680;26.324;2023-03-15T08:05:38;97569.25;;;15.33;42.29
9740;BME280;4909;42.680;26.324;2023-03-15T08:08:05;97566.44;;;15.01;41.71
9740;BME280;4909;42.680;26.324;2023-03-15T08:10:32;97562.84;;;14.91;41.70
9740;BME280;4909;42.680;26.324;2023-03-15T08:13:01;97558.31;;;14.80;41.92
9740;BME280;4909;42.680;26.324;2023-03-15T08:15:27;97564.25;;;14.61;42.43
9740;BME280;4909;42.680;26.324;2023-03-15T08:17:54;97557.44;;;14.57;42.34
9740;BME280;4909;42.680;26.324;2023-03-15T08:20:21;97561.06;;;13.86;43.07
9740;BME280;4909;42.680;26.324;2023-03-15T08:22:48;97557.28;;;13.78;43.59
9740;BME280;4909;42.680;26.324;2023-03-15T08:25:18;97547.47;;;13.55;44.45
9740;BME280;4909;42.680;26.324;2023-03-15T08:27:45;97555.13;;;13.83;43.03
9740;BME280;4909;42.680;26.324;2023-03-15T08:30:14;97542.66;;;14.29;42.43
9740;BME280;4909;42.680;26.324;2023-03-15T08:32:43;97550.78;;;14.52;39.70
9740;BME280;4909;42.680;26.324;2023-03-15T08:35:11;97531.38;;;14.83;37.78
9740;BME280;4909;42.680;26.324;2023-03-15T08:37:38;97538.97;;;15.21;37.08
9740;BME280;4909;42.680;26.324;2023-03-15T08:40:06;97535.69;;;15.51;36.22
9740;BME280;4909;42.680;26.324;2023-03-15T08:42:34;97538.75;;;15.78;34.82
9740;BME280;4909;42.680;26.324;2023-03-15T08:45:01;97527.16;;;15.68;35.10
9740;BME280;4909;42.680;26.324;2023-03-15T08:47:30;97526.34;;;15.34;35.78
9740;BME280;4909;42.680;26.324;2023-03-15T08:49:59;97525.59;;;15.43;36.44
9740;BME280;4909;42.680;26.324;2023-03-15T08:52:26;97517.94;;;16.14;34.43
9740;BME280;4909;42.680;26.324;2023-03-15T08:54:53;97523.09;;;16.05;35.04
9740;BME280;4909;42.680;26.324;2023-03-15T08:57:20;97524.53;;;16.30;35.25
9740;BME280;4909;42.680;26.324;2023-03-15T08:59:50;97520.81;;;16.01;34.93
9740;BME280;4909;42.680;26.324;2023-03-15T09:02:17;97523.91;;;15.53;35.63
9740;BME280;4909;42.680;26.324;2023-03-15T09:04:45;97517.91;;;14.85;36.84
9740;BME280;4909;42.680;26.324;2023-03-15T09:07:12;97517.59;;;15.21;35.67
9740;BME280;4909;42.680;26.324;2023-03-15T09:09:39;97506.03;;;15.32;36.64
9740;BME280;4909;42.680;26.324;2023-03-15T09:12:07;97505.84;;;15.12;36.48
9740;BME280;4909;42.680;26.324;2023-03-15T09:14:34;97505.97;;;15.11;36.58
9740;BME280;4909;42.680;26.324;2023-03-15T09:17:01;97499.75;;;15.10;37.45
9740;BME280;4909;42.680;26.324;2023-03-15T09:19:27;97496.88;;;14.91;38.58
9740;BME280;4909;42.680;26.324;2023-03-15T09:21:57;97499.41;;;15.04;38.01
9740;BME280;4909;42.680;26.324;2023-03-15T09:24:24;97504.63;;;14.50;38.06
9740;BME280;4909;42.680;26.324;2023-03-15T09:26:51;97489.47;;;14.04;39.46
9740;BME280;4909;42.680;26.324;2023-03-15T09:29:18;97493.66;;;14.30;39.05
9740;BME280;4909;42.680;26.324;2023-03-15T09:31:45;97490.31;;;14.73;37.73
9740;BME280;4909;42.680;26.324;2023-03-15T09:34:11;97491.06;;;14.86;36.98
9740;BME280;4909;42.680;26.324;2023-03-15T09:36:38;97482.53;;;15.03;35.91
9740;BME280;4909;42.680;26.324;2023-03-15T09:39:06;97483.38;;;15.15;36.27
9740;BME280;4909;42.680;26.324;2023-03-15T09:41:40;97483.13;;;15.18;37.56
9740;BME280;4909;42.680;26.324;2023-03-15T09:44:15;97472.06;;;15.11;37.90
9740;BME280;4909;42.680;26.324;2023-03-15T09:46:57;97471.16;;;14.68;38.83
9740;BME280;4909;42.680;26.324;2023-03-15T09:49:33;97466.53;;;14.70;38.93
9740;BME280;4909;42.680;26.324;2023-03-15T09:52:10;97455.25;;;14.55;39.14
9740;BME280;4909;42.680;26.324;2023-03-15T09:54:43;97463.84;;;13.90;39.68
9740;BME280;4909;42.680;26.324;2023-03-15T09:57:15;97462.53;;;13.96;40.73
9740;BME280;4909;42.680;26.324;2023-03-15T09:59:47;97460.13;;;14.04;41.79
9740;BME280;4909;42.680;26.324;2023-03-15T10:02:22;97458.09;;;14.08;42.90
9740;BME280;4909;42.680;26.324;2023-03-15T10:04:52;97461.78;;;14.40;41.75
9740;BME280;4909;42.680;26.324;2023-03-15T10:07:21;97448.03;;;14.33;40.98
9740;BME280;4909;42.680;26.324;2023-03-15T10:09:50;97444.59;;;14.66;41.18
9740;BME280;4909;42.680;26.324;2023-03-15T10:12:22;97419.34;;;15.25;38.86
9740;BME280;4909;42.680;26.324;2023-03-15T10:15:01;97454.56;;;15.30;37.64
9740;BME280;4909;42.680;26.324;2023-03-15T10:17:40;97445.44;;;15.64;37.34
9740;BME280;4909;42.680;26.324;2023-03-15T10:20:11;97434.69;;;15.43;37.84
9740;BME280;4909;42.680;26.324;2023-03-15T10:22:44;97434.16;;;15.49;38.45
9740;BME280;4909;42.680;26.324;2023-03-15T10:25:17;97426.28;;;15.48;37.54
9740;BME280;4909;42.680;26.324;2023-03-15T10:27:49;97428.44;;;15.22;36.39
9740;BME280;4909;42.680;26.324;2023-03-15T10:30:21;97425.16;;;15.50;36.27
9740;BME280;4909;42.680;26.324;2023-03-15T10:32:52;97411.22;;;15.58;36.96
9740;BME280;4909;42.680;26.324;2023-03-15T10:35:21;97420.88;;;14.84;36.78
9740;BME280;4909;42.680;26.324;2023-03-15T10:37:48;97414.69;;;14.72;37.38
9740;BME280;4909;42.680;26.324;2023-03-15T10:40:37;97426.47;;;14.70;36.90
9740;BME280;4909;42.680;26.324;2023-03-15T10:43:11;97436.66;;;14.87;35.48
9740;BME280;4909;42.680;26.324;2023-03-15T10:45:39;97427.06;;;14.96;35.69
9740;BME280;4909;42.680;26.324;2023-03-15T10:48:07;97425.25;;;14.74;36.28
9740;BME280;4909;42.680;26.324;2023-03-15T10:50:37;97416.50;;;14.83;36.16
9740;BME280;4909;42.680;26.324;2023-03-15T10:53:08;97425.88;;;15.20;36.33
9740;BME280;4909;42.680;26.324;2023-03-15T10:55:42;97422.19;;;14.34;37.07
9740;BME280;4909;42.680;26.324;2023-03-15T10:58:19;97422.47;;;14.31;37.11
9740;BME280;4909;42.680;26.324;2023-03-15T11:00:49;97421.63;;;14.64;36.07
9740;BME280;4909;42.680;26.324;2023-03-15T11:03:19;97410.88;;;14.97;35.48
9740;BME280;4909;42.680;26.324;2023-03-15T11:05:47;97405.91;;;15.04;35.02
9740;BME280;4909;42.680;26.324;2023-03-15T11:08:16;97401.06;;;14.87;35.43
9740;BME280;4909;42.680;26.324;2023-03-15T11:10:46;97394.56;;;15.11;35.53
9740;BME280;4909;42.680;26.324;2023-03-15T11:13:18;97384.78;;;15.33;35.28
9740;BME280;4909;42.680;26.324;2023-03-15T11:15:51;97390.41;;;15.82;34.35
9740;BME280;4909;42.680;26.324;2023-03-15T11:18:25;97386.78;;;16.14;33.48
9740;BME280;4909;42.680;26.324;2023-03-15T11:20:54;97363.72;;;15.71;33.67
9740;BME280;4909;42.680;26.324;2023-03-15T11:23:24;97388.69;;;15.81;33.99
9740;BME280;4909;42.680;26.324;2023-03-15T11:25:53;97367.84;;;15.11;34.63
9740;BME280;4909;42.680;26.324;2023-03-15T11:28:23;97383.75;;;14.59;35.93
9740;BME280;4909;42.680;26.324;2023-03-15T11:30:51;97383.16;;;14.44;36.37
9740;BME280;4909;42.680;26.324;2023-03-15T11:36:10;97373.25;;;15.32;35.61
9740;BME280;4909;42.680;26.324;2023-03-15T11:38:40;97371.09;;;15.47;34.93
9740;BME280;4909;42.680;26.324;2023-03-15T11:41:19;97380.09;;;15.78;34.44
9740;BME280;4909;42.680;26.324;2023-03-15T11:43:56;97364.06;;;16.08;33.88
9740;BME280;4909;42.680;26.324;2023-03-15T11:46:31;97364.34;;;16.05;33.62
9740;BME280;4909;42.680;26.324;2023-03-15T11:49:02;97353.06;;;16.01;33.92
9740;BME280;4909;42.680;26.324;2023-03-15T11:51:35;97355.97;;;15.98;33.77
9740;BME280;4909;42.680;26.324;2023-03-15T11:54:09;97365.63;;;15.16;34.55
9740;BME280;4909;42.680;26.324;2023-03-15T11:57:03;97363.59;;;15.20;35.17
9740;BME280;4909;42.680;26.324;2023-03-15T11:59:32;97362.22;;;15.57;34.72
9740;BME280;4909;42.680;26.324;2023-03-15T12:02:33;97354.56;;;15.21;34.75
9740;BME280;4909;42.680;26.324;2023-03-15T12:04:52;97348.63;;;15.17;34.83
9740;BME280;4909;42.680;26.324;2023-03-15T12:10:33;97339.28;;;15.44;34.40
9740;BME280;4909;42.680;26.324;2023-03-15T12:13:17;97334.81;;;15.65;34.22
9740;BME280;4909;42.680;26.324;2023-03-15T12:15:46;97334.63;;;15.57;34.58
9740;BME280;4909;42.680;26.324;2023-03-15T12:18:17;97329.41;;;15.76;34.70
9740;BME280;4909;42.680;26.324;2023-03-15T12:20:56;97329.22;;;15.68;34.89
9740;BME280;4909;42.680;26.324;2023-03-15T12:23:36;97329.50;;;15.75;34.87
9740;BME280;4909;42.680;26.324;2023-03-15T12:26:06;97316.06;;;15.44;34.99
9740;BME280;4909;42.680;26.324;2023-03-15T12:28:37;97314.94;;;15.26;35.07
9740;BME280;4909;42.680;26.324;2023-03-15T12:31:07;97322.09;;;15.26;35.19
9740;BME280;4909;42.680;26.324;2023-03-15T12:33:44;97321.25;;;15.25;35.45
9740;BME280;4909;42.680;26.324;2023-03-15T12:36:19;97317.00;;;15.02;35.74
9740;BME280;4909;42.680;26.324;2023-03-15T12:38:58;97317.69;;;14.83;36.11
9740;BME280;4909;42.680;26.324;2023-03-15T12:41:40;97310.94;;;15.00;36.03
9740;BME280;4909;42.680;26.324;2023-03-15T12:44:23;97306.63;;;15.19;36.11
9740;BME280;4909;42.680;26.324;2023-03-15T12:46:55;97284.09;;;15.22;35.03
9740;BME280;4909;42.680;26.324;2023-03-15T12:49:35;97304.03;;;14.97;35.53
9740;BME280;4909;42.680;26.324;2023-03-15T12:52:04;97312.81;;;15.20;35.62
9740;BME280;4909;42.680;26.324;2023-03-15T12:54:38;97317.09;;;15.32;35.09
9740;BME280;4909;42.680;26.324;2023-03-15T12:57:09;97320.59;;;15.64;34.66
9740;BME280;4909;42.680;26.324;2023-03-15T12:59:43;97322.56;;;15.93;33.89
9740;BME280;4909;42.680;26.324;2023-03-15T13:02:26;97314.94;;;15.88;33.47
9740;BME280;4909;42.680;26.324;2023-03-15T13:04:59;97311.47;;;15.67;33.71
9740;BME280;4909;42.680;26.324;2023-03-15T13:07:34;97322.91;;;15.79;34.58
9740;BME280;4909;42.680;26.324;2023-03-15T13:10:24;97312.81;;;16.13;33.80
9740;BME280;4909;42.680;26.324;2023-03-15T13:12:57;97320.75;;;15.93;34.00
9740;BME280;4909;42.680;26.324;2023-03-15T13:15:30;97312.94;;;15.81;34.10
9740;BME280;4909;42.680;26.324;2023-03-15T13:18:04;97287.28;;;15.78;33.78
9740;BME280;4909;42.680;26.324;2023-03-15T13:20:50;97320.28;;;15.88;34.09
9740;BME280;4909;42.680;26.324;2023-03-15T13:23:20;97317.50;;;15.90;34.11
9740;BME280;4909;42.680;26.324;2023-03-15T13:26:03;97324.78;;;15.57;34.60
9740;BME280;4909;42.680;26.324;2023-03-15T13:28:36;97319.94;;;15.51;35.04
9740;BME280;4909;42.680;26.324;2023-03-15T13:31:16;97322.03;;;15.16;35.21